createdAt,value
2023-05-13T00:00:45.484Z,4.05
2023-05-13T00:03:12.484Z,3.63
2023-05-13T00:05:40.419Z,4.00
2023-05-13T00:08:07.456Z,4.22
2023-05-13T00:10:34.819Z,3.63
2023-05-13T00:13:01.645Z,3.53
2023-05-13T00:15:28.713Z,3.97
2023-05-13T00:17:55.295Z,3.70
2023-05-13T00:20:22.103Z,4.50
2023-05-13T00:22:48.856Z,4.35
2023-05-13T00:25:15.501Z,3.83
2023-05-13T00:27:42.014Z,4.22
2023-05-13T00:30:09.344Z,3.83
2023-05-13T00:32:35.867Z,4.15
2023-05-13T00:35:02.411Z,3.88
2023-05-13T00:37:28.902Z,4.28
2023-05-13T00:39:55.445Z,4.40
2023-05-13T00:42:21.941Z,4.40
2023-05-13T00:44:48.535Z,4.47
2023-05-13T00:47:16.842Z,3.97
2023-05-13T00:49:43.537Z,4.30
2023-05-13T00:52:10.022Z,4.22
2023-05-13T00:54:36.538Z,4.15
2023-05-13T00:57:02.986Z,4.20
2023-05-13T00:59:30.704Z,3.95
2023-05-13T01:02:12.273Z,4.55
2023-05-13T01:04:52.667Z,4.20
2023-05-13T01:07:37.952Z,4.10
2023-05-13T01:10:43.483Z,4.15
2023-05-13T01:13:13.414Z,3.97
2023-05-13T01:15:47.399Z,4.18
2023-05-13T01:18:19.709Z,3.92
2023-05-13T01:20:46.649Z,4.63
2023-05-13T01:23:13.199Z,5.07
2023-05-13T01:25:40.759Z,4.22
2023-05-13T01:28:08.579Z,4.07
2023-05-13T01:30:36.132Z,4.30
2023-05-13T01:33:03.208Z,4.22
2023-05-13T01:35:31.692Z,4.35
2023-05-13T01:37:59.323Z,4.45
2023-05-13T01:40:32.867Z,4.78
2023-05-13T01:43:00.726Z,4.22
2023-05-13T01:45:30.610Z,4.05
2023-05-13T01:47:57.181Z,5.18
2023-05-13T01:50:24.169Z,4.28
2023-05-13T01:52:50.868Z,4.40
2023-05-13T01:55:17.672Z,4.18
2023-05-13T01:57:44.182Z,4.10
2023-05-13T02:00:11.432Z,3.95
2023-05-13T02:02:37.992Z,4.30
2023-05-13T02:05:05.397Z,4.43
2023-05-13T02:07:31.930Z,4.35
2023-05-13T02:09:59.800Z,3.85
2023-05-13T02:12:26.984Z,3.85
2023-05-13T02:14:54.553Z,4.22
2023-05-13T02:17:22.761Z,4.47
2023-05-13T02:19:49.428Z,5.00
2023-05-13T02:22:16.370Z,3.85
2023-05-13T02:24:43.055Z,4.40
2023-05-13T02:27:12.502Z,4.35
2023-05-13T02:29:39.103Z,4.65
2023-05-13T02:32:06.132Z,5.18
2023-05-13T02:34:32.609Z,4.38
2023-05-13T02:36:59.044Z,3.88
2023-05-13T02:39:25.483Z,4.95
2023-05-13T02:41:51.985Z,4.50
2023-05-13T02:44:18.443Z,4.38
2023-05-13T02:46:44.929Z,4.45
2023-05-13T02:49:11.611Z,4.18
2023-05-13T02:51:38.012Z,4.63
2023-05-13T02:54:05.008Z,4.28
2023-05-13T02:56:31.526Z,4.45
2023-05-13T02:58:58.184Z,5.13
2023-05-13T03:01:26.624Z,4.38
2023-05-13T03:03:53.235Z,4.22
2023-05-13T03:06:19.687Z,4.65
2023-05-13T03:08:46.175Z,4.55
2023-05-13T03:11:12.650Z,5.15
2023-05-13T03:13:39.117Z,3.78
2023-05-13T03:16:05.712Z,4.32
2023-05-13T03:18:32.856Z,4.75
2023-05-13T03:20:59.480Z,4.15
2023-05-13T03:23:26.010Z,4.65
2023-05-13T03:25:52.487Z,4.30
2023-05-13T03:28:19.005Z,4.60
2023-05-13T03:30:45.697Z,4.32
2023-05-13T03:33:12.252Z,4.88
2023-05-13T03:35:38.807Z,4.65
2023-05-13T03:38:05.280Z,5.75
2023-05-13T03:40:31.798Z,4.22
2023-05-13T03:42:58.280Z,5.32
2023-05-13T03:45:24.702Z,5.03
2023-05-13T03:47:51.210Z,4.35
2023-05-13T03:50:17.759Z,4.10
2023-05-13T03:52:46.793Z,4.32
2023-05-13T03:55:15.008Z,4.32
2023-05-13T03:57:45.149Z,4.68
2023-05-13T04:00:12.367Z,5.38
2023-05-13T04:02:39.118Z,4.90
2023-05-13T04:05:06.371Z,4.50
2023-05-13T04:07:32.954Z,5.53
2023-05-13T04:09:59.375Z,4.22
2023-05-13T04:12:25.849Z,4.50
2023-05-13T04:14:52.323Z,4.55
2023-05-13T04:17:18.847Z,4.10
2023-05-13T04:19:45.362Z,5.03
2023-05-13T04:22:11.930Z,4.82
2023-05-13T04:24:38.687Z,4.65
2023-05-13T04:27:05.403Z,4.82
2023-05-13T04:29:31.852Z,4.47
2023-05-13T04:31:58.378Z,4.32
2023-05-13T04:34:24.850Z,4.38
2023-05-13T04:36:51.290Z,4.45
2023-05-13T04:39:17.701Z,4.88
2023-05-13T04:41:44.240Z,4.75
2023-05-13T04:44:10.908Z,4.85
2023-05-13T04:46:40.546Z,5.18
2023-05-13T04:49:07.105Z,4.80
2023-05-13T04:51:34.003Z,4.38
2023-05-13T04:54:00.803Z,4.80
2023-05-13T04:56:27.911Z,4.32
2023-05-13T04:58:54.398Z,5.30
2023-05-13T05:01:20.892Z,4.80
2023-05-13T05:03:47.447Z,4.20
2023-05-13T05:06:13.942Z,4.50
2023-05-13T05:08:40.488Z,4.80
2023-05-13T05:11:06.972Z,4.38
2023-05-13T05:13:33.531Z,4.40
2023-05-13T05:15:59.956Z,4.82
2023-05-13T05:18:26.576Z,4.70
2023-05-13T05:20:53.162Z,5.40
2023-05-13T05:23:19.622Z,4.60
2023-05-13T05:25:46.100Z,4.65
2023-05-13T05:28:12.586Z,4.82
2023-05-13T05:30:42.070Z,4.28
2023-05-13T05:33:08.880Z,4.70
2023-05-13T05:35:38.400Z,4.10
2023-05-13T05:38:05.354Z,4.75
2023-05-13T05:40:32.916Z,4.38
2023-05-13T05:42:59.487Z,4.22
2023-05-13T05:45:25.996Z,4.60
2023-05-13T05:47:54.147Z,5.15
2023-05-13T05:50:21.351Z,4.25
2023-05-13T05:52:48.088Z,4.40
2023-05-13T05:55:15.152Z,4.13
2023-05-13T05:57:41.591Z,4.07
2023-05-13T06:00:08.779Z,4.20
2023-05-13T06:02:35.361Z,4.00
2023-05-13T06:05:01.855Z,4.05
2023-05-13T06:07:28.447Z,4.55
2023-05-13T06:09:55.491Z,4.10
2023-05-13T06:12:23.225Z,3.42
2023-05-13T06:14:50.327Z,3.97
2023-05-13T06:17:16.772Z,4.35
2023-05-13T06:19:43.574Z,3.35
2023-05-13T06:22:11.266Z,3.95
2023-05-13T06:24:39.191Z,3.67
2023-05-13T06:27:05.786Z,3.47
2023-05-13T06:29:32.460Z,3.53
2023-05-13T06:31:58.954Z,4.28
2023-05-13T06:34:25.428Z,3.63
2023-05-13T06:36:51.886Z,3.95
2023-05-13T06:39:18.491Z,3.17
2023-05-13T06:41:45.066Z,3.60
2023-05-13T06:44:11.534Z,3.53
2023-05-13T06:46:38.037Z,3.78
2023-05-13T06:49:04.650Z,3.67
2023-05-13T06:51:32.951Z,3.22
2023-05-13T06:53:59.560Z,3.70
2023-05-13T06:56:26.152Z,3.47
2023-05-13T06:58:53.164Z,3.25
2023-05-13T07:01:19.971Z,2.80
2023-05-13T07:03:46.556Z,3.35
2023-05-13T07:06:13.043Z,2.78
2023-05-13T07:08:40.823Z,3.38
2023-05-13T07:11:07.383Z,2.95
2023-05-13T07:13:34.957Z,2.95
2023-05-13T07:16:02.395Z,3.20
2023-05-13T07:18:29.602Z,3.03
2023-05-13T07:20:59.019Z,3.00
2023-05-13T07:23:25.626Z,2.58
2023-05-13T07:25:52.442Z,3.10
2023-05-13T07:28:20.733Z,2.72
2023-05-13T07:30:47.307Z,2.80
2023-05-13T07:33:13.915Z,2.92
2023-05-13T07:35:40.422Z,2.90
2023-05-13T07:38:09.229Z,2.15
2023-05-13T07:40:35.801Z,2.45
2023-05-13T07:43:02.300Z,2.40
2023-05-13T07:45:29.505Z,2.35
2023-05-13T07:47:56.574Z,2.80
2023-05-13T07:50:23.243Z,2.13
2023-05-13T07:52:51.683Z,2.40
2023-05-13T07:55:18.897Z,2.55
2023-05-13T07:57:45.712Z,2.10
2023-05-13T08:00:12.559Z,2.35
2023-05-13T08:02:39.315Z,2.65
2023-05-13T08:05:06.695Z,2.83
2023-05-13T08:07:33.347Z,3.05
2023-05-13T08:09:59.829Z,2.75
2023-05-13T08:12:26.281Z,2.70
2023-05-13T08:14:52.860Z,2.53
2023-05-13T08:17:19.682Z,3.00
2023-05-13T08:19:46.373Z,3.17
2023-05-13T08:22:12.947Z,2.58
2023-05-13T08:24:43.095Z,2.80
2023-05-13T08:27:09.589Z,2.50
2023-05-13T08:29:36.150Z,2.67
2023-05-13T08:32:03.018Z,2.47
2023-05-13T08:34:29.658Z,2.85
2023-05-13T08:36:56.108Z,2.10
2023-05-13T08:39:22.748Z,2.47
2023-05-13T08:41:50.101Z,2.63
2023-05-13T08:44:18.956Z,2.63
2023-05-13T08:46:53.369Z,2.70
2023-05-13T08:49:20.663Z,2.42
2023-05-13T08:51:47.145Z,3.05
2023-05-13T08:54:16.455Z,2.70
2023-05-13T08:56:42.915Z,2.80
2023-05-13T08:59:09.476Z,2.95
2023-05-13T09:01:36.422Z,2.63
2023-05-13T09:04:08.603Z,2.90
2023-05-13T09:06:35.124Z,2.45
2023-05-13T09:09:03.136Z,3.00
2023-05-13T09:11:29.643Z,3.03
2023-05-13T09:14:00.414Z,2.40
2023-05-13T09:16:29.267Z,2.92
2023-05-13T09:18:58.931Z,2.20
2023-05-13T09:21:34.124Z,3.05
2023-05-13T09:24:18.901Z,2.38
2023-05-13T09:26:46.307Z,2.75
2023-05-13T09:29:18.571Z,2.47
2023-05-13T09:31:46.915Z,2.70
2023-05-13T09:34:13.414Z,2.15
2023-05-13T09:36:40.642Z,2.10
2023-05-13T09:39:07.254Z,2.17
2023-05-13T09:41:34.383Z,2.25
2023-05-13T09:44:04.746Z,2.50
2023-05-13T09:46:35.125Z,2.83
2023-05-13T09:49:01.754Z,2.00
2023-05-13T09:51:31.809Z,3.08
2023-05-13T09:54:06.293Z,2.45
2023-05-13T09:56:36.924Z,2.15
2023-05-13T09:59:03.792Z,2.50
2023-05-13T10:01:30.845Z,2.30
2023-05-13T10:04:01.281Z,2.20
2023-05-13T10:06:30.860Z,2.45
2023-05-13T10:09:01.364Z,2.13
2023-05-13T10:11:30.105Z,1.88
2023-05-13T10:14:20.538Z,1.90
2023-05-13T10:16:47.995Z,2.20
2023-05-13T10:19:14.900Z,2.13
2023-05-13T10:21:42.175Z,2.30
2023-05-13T10:24:09.864Z,1.98
2023-05-13T10:26:36.583Z,2.25
2023-05-13T10:29:03.563Z,1.80
2023-05-13T10:31:30.956Z,1.95
2023-05-13T10:33:58.622Z,2.22
2023-05-13T10:36:43.870Z,2.45
2023-05-13T10:39:49.428Z,1.77
2023-05-13T10:42:27.722Z,2.53
2023-05-13T10:44:58.589Z,2.33
2023-05-13T10:47:25.392Z,2.42
2023-05-13T10:49:52.919Z,2.50
2023-05-13T10:52:19.885Z,2.17
2023-05-13T10:55:01.579Z,2.35
2023-05-13T10:57:37.823Z,1.98
2023-05-13T11:00:15.707Z,2.15
2023-05-13T11:02:42.711Z,2.03
2023-05-13T11:05:09.977Z,2.08
2023-05-13T11:07:39.675Z,2.50
2023-05-13T11:10:25.612Z,3.03
2023-05-13T11:13:13.186Z,3.20
2023-05-13T11:15:52.072Z,2.80
2023-05-13T11:18:20.183Z,2.67
2023-05-13T11:20:53.064Z,2.13
2023-05-13T11:23:21.080Z,2.00
2023-05-13T11:26:09.433Z,2.30
2023-05-13T11:29:00.125Z,2.58
2023-05-13T11:31:28.676Z,2.40
2023-05-13T11:34:11.463Z,2.17
2023-05-13T11:36:40.459Z,2.22
2023-05-13T11:39:07.774Z,2.08
2023-05-13T11:41:34.400Z,2.55
2023-05-13T11:44:03.274Z,2.30
2023-05-13T11:46:30.150Z,2.25
2023-05-13T11:48:56.931Z,2.22
2023-05-13T11:51:25.443Z,2.03
2023-05-13T11:53:55.148Z,2.28
2023-05-13T11:56:26.576Z,2.83
2023-05-13T11:58:53.402Z,1.92
2023-05-13T12:01:19.890Z,1.77
2023-05-13T12:03:46.570Z,2.03
2023-05-13T12:06:13.601Z,1.85
2023-05-13T12:08:45.370Z,2.05
2023-05-13T12:11:15.280Z,2.38
2023-05-13T12:13:42.049Z,2.00
2023-05-13T12:16:08.802Z,2.50
2023-05-13T12:18:37.224Z,1.90
2023-05-13T12:21:14.599Z,2.38
2023-05-13T12:23:41.161Z,2.10
2023-05-13T12:26:08.153Z,2.15
2023-05-13T12:28:34.688Z,2.10
2023-05-13T12:31:03.437Z,2.30
2023-05-13T12:33:31.237Z,2.25
2023-05-13T12:36:21.634Z,2.20
2023-05-13T12:39:02.626Z,2.35
2023-05-13T12:41:31.978Z,1.80
2023-05-13T12:44:14.507Z,2.10
2023-05-13T12:46:58.312Z,2.80
2023-05-13T12:49:27.150Z,2.40
2023-05-13T12:51:53.604Z,2.95
2023-05-13T12:54:20.110Z,2.20
2023-05-13T12:56:46.645Z,3.03
2023-05-13T12:59:14.385Z,2.70
2023-05-13T13:01:42.206Z,2.42
2023-05-13T13:04:08.909Z,1.98
2023-05-13T13:06:35.770Z,2.30
2023-05-13T13:09:02.312Z,2.60
2023-05-13T13:11:29.885Z,2.17
2023-05-13T13:13:56.419Z,2.50
2023-05-13T13:16:23.191Z,2.13
2023-05-13T13:18:53.193Z,2.22
2023-05-13T13:21:21.400Z,2.40
2023-05-13T13:23:47.819Z,2.20
2023-05-13T13:26:14.319Z,2.50
2023-05-13T13:28:40.789Z,2.08
2023-05-13T13:31:07.906Z,2.38
2023-05-13T13:33:34.436Z,2.38
2023-05-13T13:36:00.942Z,2.60
2023-05-13T13:38:27.426Z,2.20
2023-05-13T13:40:53.813Z,2.40
2023-05-13T13:43:21.560Z,2.20
2023-05-13T13:45:48.146Z,2.22
2023-05-13T13:48:14.693Z,2.67
2023-05-13T14:01:44.286Z,2.50
2023-05-13T14:04:15.678Z,2.45
2023-05-13T14:06:42.638Z,2.30
2023-05-13T14:09:10.416Z,2.55
2023-05-13T14:11:37.021Z,2.50
2023-05-13T14:14:03.484Z,2.58
2023-05-13T14:16:30.573Z,3.13
2023-05-13T14:18:57.396Z,2.75
2023-05-13T14:21:24.024Z,3.53
2023-05-13T14:23:50.664Z,2.65
2023-05-13T14:26:39.130Z,2.70
2023-05-13T14:29:06.667Z,2.58
2023-05-13T14:31:33.269Z,2.45
2023-05-13T14:33:59.785Z,2.83
2023-05-13T14:36:26.795Z,2.63
2023-05-13T14:38:54.072Z,2.90
2023-05-13T14:41:22.597Z,3.10
2023-05-13T14:43:49.446Z,2.60
2023-05-13T14:46:16.045Z,2.47
2023-05-13T14:48:42.600Z,3.15
2023-05-13T14:51:11.160Z,2.53
2023-05-13T14:53:38.433Z,2.45
2023-05-13T14:56:06.405Z,2.55
2023-05-13T14:58:32.959Z,2.65
2023-05-13T15:00:59.463Z,2.20
2023-05-13T15:03:26.334Z,2.30
2023-05-13T15:05:54.329Z,2.53
2023-05-13T15:08:21.000Z,3.08
2023-05-13T15:10:47.538Z,2.55
2023-05-13T15:13:13.986Z,2.65
2023-05-13T15:15:40.448Z,2.50
2023-05-13T15:18:06.985Z,2.90
2023-05-13T15:20:33.515Z,2.60
2023-05-13T15:23:00.001Z,2.33
2023-05-13T15:25:26.496Z,2.40
2023-05-13T15:27:54.200Z,2.88
2023-05-13T15:30:20.882Z,2.30
2023-05-13T15:32:47.543Z,3.33
2023-05-13T15:35:15.768Z,2.67
2023-05-13T15:37:42.660Z,3.20
2023-05-13T15:40:09.484Z,2.80
2023-05-13T15:42:36.020Z,2.83
2023-05-13T15:45:02.597Z,3.15
2023-05-13T15:47:29.271Z,2.55
2023-05-13T15:49:55.857Z,2.67
2023-05-13T15:52:22.292Z,2.92
2023-05-13T15:54:48.753Z,2.78
2023-05-13T15:57:15.579Z,2.75
2023-05-13T15:59:42.177Z,2.63
2023-05-13T16:02:08.748Z,2.58
2023-05-13T16:04:35.556Z,3.90
2023-05-13T16:07:02.119Z,4.28
2023-05-13T16:09:28.563Z,3.63
2023-05-13T16:11:55.354Z,4.00
2023-05-13T16:14:21.835Z,3.80
2023-05-13T16:16:48.396Z,3.45
2023-05-13T16:19:14.996Z,4.45
2023-05-13T16:21:42.277Z,3.45
2023-05-13T16:24:08.728Z,3.42
2023-05-13T16:26:35.194Z,3.78
2023-05-13T16:29:01.921Z,3.78
2023-05-13T16:31:28.484Z,3.33
2023-05-13T16:33:55.094Z,3.17
2023-05-13T16:36:21.707Z,3.95
2023-05-13T16:38:48.431Z,3.88
2023-05-13T16:41:15.022Z,3.65
2023-05-13T16:43:41.415Z,3.53
2023-05-13T16:46:07.873Z,3.33
2023-05-13T16:48:34.630Z,3.63
2023-05-13T16:51:01.062Z,2.50
2023-05-13T16:53:27.533Z,2.92
2023-05-13T16:55:54.083Z,2.75
2023-05-13T16:58:20.612Z,2.92
2023-05-13T17:00:47.123Z,2.70
2023-05-13T17:03:13.756Z,2.85
2023-05-13T17:05:40.570Z,2.92
2023-05-13T17:08:07.035Z,3.40
2023-05-13T17:10:33.533Z,2.78
2023-05-13T17:12:59.960Z,3.85
2023-05-13T17:15:26.418Z,3.78
2023-05-13T17:17:52.888Z,7.07
2023-05-13T17:20:20.566Z,11.85
2023-05-13T17:22:47.500Z,4.60
2023-05-13T17:25:14.895Z,4.07
2023-05-13T17:27:41.454Z,3.78
2023-05-13T17:30:08.702Z,4.55
2023-05-13T17:32:35.764Z,3.75
2023-05-13T17:35:04.075Z,4.43
2023-05-13T17:37:30.633Z,3.92
2023-05-13T17:40:00.597Z,3.50
2023-05-13T17:42:28.899Z,3.08
2023-05-13T17:44:55.480Z,2.70
2023-05-13T17:47:22.049Z,3.13
2023-05-13T17:49:48.482Z,3.33
2023-05-13T17:52:15.068Z,3.58
2023-05-13T17:54:41.570Z,3.05
2023-05-13T17:57:09.918Z,2.90
2023-05-13T17:59:36.667Z,3.10
2023-05-13T18:02:03.249Z,2.90
2023-05-13T18:04:29.769Z,2.63
2023-05-13T18:06:56.193Z,2.88
2023-05-13T18:09:22.640Z,3.42
2023-05-13T18:11:49.065Z,2.78
2023-05-13T18:14:15.669Z,2.90
2023-05-13T18:16:42.174Z,3.03
2023-05-13T18:19:08.747Z,3.08
2023-05-13T18:21:35.281Z,4.35
2023-05-13T18:24:01.794Z,3.10
2023-05-13T18:26:28.203Z,3.00
2023-05-13T18:28:54.665Z,3.58
2023-05-13T18:31:21.178Z,3.80
2023-05-13T18:33:47.736Z,4.03
2023-05-13T18:36:14.591Z,5.18
2023-05-13T18:38:41.156Z,5.22
2023-05-13T18:41:07.687Z,3.30
2023-05-13T18:43:34.180Z,5.97
2023-05-13T18:46:00.797Z,4.30
2023-05-13T18:48:27.358Z,3.90
2023-05-13T18:50:53.819Z,3.85
2023-05-13T18:53:20.258Z,3.25
2023-05-13T18:55:46.686Z,3.15
2023-05-13T18:58:13.793Z,3.92
2023-05-13T19:00:40.324Z,3.67
2023-05-13T19:03:06.873Z,2.97
2023-05-13T19:05:33.539Z,4.38
2023-05-13T19:08:00.645Z,4.13
2023-05-13T19:10:27.194Z,4.13
2023-05-13T19:12:53.678Z,6.05
2023-05-13T19:15:21.380Z,4.28
2023-05-13T19:17:48.129Z,3.83
2023-05-13T19:20:16.445Z,3.55
2023-05-13T19:22:42.969Z,4.05
2023-05-13T19:25:09.713Z,3.78
2023-05-13T19:27:37.247Z,3.08
2023-05-13T19:30:04.316Z,3.72
2023-05-13T19:32:30.857Z,3.78
2023-05-13T19:34:57.269Z,3.33
2023-05-13T19:37:24.342Z,2.95
2023-05-13T19:39:50.809Z,3.33
2023-05-13T19:42:17.343Z,3.72
2023-05-13T19:44:44.117Z,3.58
2023-05-13T19:47:10.568Z,3.25
2023-05-13T19:49:37.044Z,3.50
2023-05-13T19:52:03.629Z,3.20
2023-05-13T19:54:30.074Z,3.67
2023-05-13T19:56:56.612Z,3.83
2023-05-13T19:59:23.089Z,4.20
2023-05-13T20:01:49.592Z,5.22
2023-05-13T20:04:16.807Z,6.10
2023-05-13T20:06:43.270Z,6.05
2023-05-13T20:09:10.500Z,5.05
2023-05-13T20:11:36.943Z,4.95
2023-05-13T20:14:04.155Z,4.88
2023-05-13T20:16:30.728Z,4.32
2023-05-13T20:18:57.396Z,4.93
2023-05-13T20:21:23.913Z,5.32
2023-05-13T20:23:50.335Z,4.72
2023-05-13T20:26:17.211Z,4.95
2023-05-13T20:28:45.634Z,4.88
2023-05-13T20:31:12.257Z,4.65
2023-05-13T20:33:38.723Z,4.30
2023-05-13T20:36:06.507Z,4.80
2023-05-13T20:38:33.054Z,4.65
2023-05-13T20:40:59.855Z,3.70
2023-05-13T20:43:26.448Z,3.95
2023-05-13T20:45:53.056Z,4.30
2023-05-13T20:48:19.675Z,4.25
2023-05-13T20:50:46.231Z,5.20
2023-05-13T20:53:12.731Z,5.60
2023-05-13T20:55:39.211Z,5.35
2023-05-13T20:58:05.804Z,6.10
2023-05-13T21:00:32.280Z,5.55
2023-05-13T21:02:59.469Z,5.45
2023-05-13T21:05:26.203Z,6.57
2023-05-13T21:07:52.678Z,6.32
2023-05-13T21:10:19.203Z,6.93
2023-05-13T21:12:47.653Z,7.45
2023-05-13T21:15:14.694Z,6.90
2023-05-13T21:17:41.235Z,7.25
2023-05-13T21:20:08.639Z,7.63
2023-05-13T21:22:35.114Z,8.32
2023-05-13T21:25:01.609Z,7.72
2023-05-13T21:27:28.056Z,8.20
2023-05-13T21:29:54.539Z,8.52
2023-05-13T21:32:21.032Z,8.50
2023-05-13T21:34:47.481Z,9.20
2023-05-13T21:37:14.395Z,8.43
2023-05-13T21:39:41.375Z,8.20
2023-05-13T21:42:08.046Z,9.27
2023-05-13T21:44:34.953Z,8.60
2023-05-13T21:47:01.458Z,8.90
2023-05-13T21:49:27.903Z,8.23
2023-05-13T21:51:54.394Z,8.85
2023-05-13T21:54:20.946Z,8.13
2023-05-13T21:56:47.465Z,7.60
2023-05-13T21:59:13.939Z,7.70
2023-05-13T22:01:40.488Z,8.30
2023-05-13T22:04:07.014Z,8.30
2023-05-13T22:06:33.569Z,8.18
2023-05-13T22:09:01.404Z,7.70
2023-05-13T22:11:27.936Z,7.95
2023-05-13T22:13:54.331Z,7.70
2023-05-13T22:16:20.902Z,8.00
2023-05-13T22:18:48.851Z,8.15
2023-05-13T22:21:15.560Z,7.65
2023-05-13T22:23:42.066Z,7.68
2023-05-13T22:26:08.548Z,8.45
2023-05-13T22:28:34.996Z,8.52
2023-05-13T22:31:01.836Z,7.85
2023-05-13T22:33:28.364Z,7.88
2023-05-13T22:35:54.847Z,8.05
2023-05-13T22:38:21.348Z,7.63
2023-05-13T22:40:47.868Z,7.53
2023-05-13T22:43:14.335Z,8.40
2023-05-13T22:45:40.896Z,7.60
2023-05-13T22:48:08.160Z,8.32
2023-05-13T22:50:34.814Z,7.95
2023-05-13T22:53:01.272Z,7.80
2023-05-13T22:55:27.716Z,7.07
2023-05-13T22:57:54.162Z,7.57
2023-05-13T23:00:20.856Z,7.28
2023-05-13T23:02:47.536Z,8.02
2023-05-13T23:05:14.004Z,7.30
2023-05-13T23:07:40.471Z,7.65
2023-05-13T23:10:07.410Z,7.60
2023-05-13T23:12:33.845Z,7.70
2023-05-13T23:15:00.421Z,7.53
2023-05-13T23:17:26.929Z,7.80
2023-05-13T23:19:53.460Z,7.78
2023-05-13T23:22:19.886Z,7.28
2023-05-13T23:24:46.333Z,7.72
2023-05-13T23:27:12.848Z,7.85
2023-05-13T23:29:39.333Z,7.03
2023-05-13T23:32:06.953Z,7.80
2023-05-13T23:34:33.824Z,7.63
2023-05-13T23:37:00.329Z,7.80
2023-05-13T23:39:26.778Z,7.53
2023-05-13T23:41:53.221Z,7.72
2023-05-13T23:44:19.652Z,6.88
2023-05-13T23:46:46.119Z,7.40
2023-05-13T23:49:12.521Z,7.10
2023-05-13T23:51:39.183Z,7.03
2023-05-13T23:54:05.726Z,7.07
2023-05-13T23:56:32.249Z,7.18
2023-05-13T23:58:58.770Z,6.57
